Time;durP1;ratioP1;P1;durP2;ratioP2;P2;SDS_P1;SDS_P2;PMS_P1;PMS_P2;Temp;Humidity;BMP_temperature;BMP_pressure;BME280_temperature;BME280_humidity;BME280_pressure;Samples;Min_cycle;Max_cycle;Signal;HPM_P1;HPM_P2
2022/07/18 00:01:03;;;;;;;;;;;;;;;10.71;59.63;101551.45;1785182;79;20542;-73
2022/07/18 00:03:30;;;;;;;;;;;;;;;10.70;59.55;101548.42;1784857;80;20495;-73
2022/07/18 00:05:57;;;;;;;;;;;;;;;10.69;59.57;101550.60;1785111;80;21177;-73
2022/07/18 00:08:24;;;;;;;;;;;;;;;10.64;59.55;101545.92;1784810;80;20428;-72
2022/07/18 00:10:51;;;;;;;;;;;;;;;10.60;59.74;101545.55;1785229;80;20170;-73
2022/07/18 00:13:17;;;;;;;;;;;;;;;10.58;60.01;101548.63;1785119;80;20162;-73
2022/07/18 00:15:44;;;;;;;;;;;;;;;10.57;60.06;101540.81;1784768;79;21383;-73
2022/07/18 00:18:11;;;;;;;;;;;;;;;10.55;60.02;101545.22;1784759;79;21079;-73
2022/07/18 00:20:38;;;;;;;;;;;;;;;10.52;60.13;101536.95;1785109;80;20162;-73
2022/07/18 00:23:05;;;;;;;;;;;;;;;10.51;60.27;101540.94;1780753;80;20178;-73
2022/07/18 00:25:31;;;;;;;;;;;;;;;10.49;60.42;101543.57;1784857;80;20276;-73
2022/07/18 00:27:58;;;;;;;;;;;;;;;10.48;60.60;101545.33;1785143;80;20543;-73
2022/07/18 00:30:24;;;;;;;;;;;;;;;10.48;60.73;101540.55;1784990;80;20976;-73
2022/07/18 00:32:51;;;;;;;;;;;;;;;10.46;60.74;101543.18;1784770;80;20147;-73
2022/07/18 00:35:17;;;;;;;;;;;;;;;10.43;60.69;101541.92;1785145;80;20383;-73
2022/07/18 00:37:44;;;;;;;;;;;;;;;10.40;60.92;101539.81;1785028;80;20165;-73
2022/07/18 00:40:11;;;;;;;;;;;;;;;10.39;61.12;101544.62;1784811;79;21206;-73
2022/07/18 00:42:38;;;;;;;;;;;;;;;10.38;61.24;101536.35;1782206;79;21323;-73
2022/07/18 00:45:06;;;;;;;;;;;;;;;10.36;61.29;101540.75;1779536;80;20170;-73
2022/07/18 00:47:33;;;;;;;;;;;;;;;10.32;61.36;101535.16;1779370;80;20180;-73
2022/07/18 00:49:59;;;;;;;;;;;;;;;10.29;61.37;101537.38;1779629;80;20189;-73
2022/07/18 00:52:26;;;;;;;;;;;;;;;10.26;61.62;101539.58;1779496;80;20554;-73
2022/07/18 00:54:52;;;;;;;;;;;;;;;10.30;61.90;101542.17;1779612;80;21113;-73
2022/07/18 00:57:19;;;;;;;;;;;;;;;10.29;61.99;101543.94;1779374;80;20167;-73
2022/07/18 01:02:32;;;;;;;;;;;;;;;10.29;62.30;101546.55;1778389;80;20198;-73
2022/07/18 01:04:58;;;;;;;;;;;;;;;10.32;62.51;101541.70;1757910;80;20502;-73
2022/07/18 01:07:25;;;;;;;;;;;;;;;10.32;62.46;101543.88;1779460;80;21067;-73
2022/07/18 01:09:51;;;;;;;;;;;;;;;10.30;62.53;101547.41;1779473;80;20159;-73
2022/07/18 01:12:19;;;;;;;;;;;;;;;10.32;62.74;101548.26;1779764;80;20218;-73
2022/07/18 01:14:47;;;;;;;;;;;;;;;10.32;62.83;101544.33;1777989;80;20486;-73
2022/07/18 01:17:15;;;;;;;;;;;;;;;10.34;63.01;101539.48;1779572;80;20509;-73
2022/07/18 01:19:42;;;;;;;;;;;;;;;10.36;62.94;101541.61;1779708;80;21747;-73
2022/07/18 01:22:09;;;;;;;;;;;;;;;10.35;62.95;101539.03;1779409;80;20185;-73
2022/07/18 01:24:37;;;;;;;;;;;;;;;10.33;63.12;101547.36;1779801;80;20177;-73
2022/07/18 01:27:03;;;;;;;;;;;;;;;10.36;63.19;101544.68;1760155;80;20148;-73
2022/07/18 01:29:30;;;;;;;;;;;;;;;10.38;63.29;101542.91;1777480;80;21451;-72
2022/07/18 01:31:58;;;;;;;;;;;;;;;10.39;63.37;101540.27;1757609;80;21149;-73
2022/07/18 01:34:25;;;;;;;;;;;;;;;10.42;63.54;101540.62;1772751;79;20229;-73
2022/07/18 01:36:52;;;;;;;;;;;;;;;10.46;63.54;101544.94;1779567;80;20155;-73
2022/07/18 01:39:19;;;;;;;;;;;;;;;10.51;63.58;101542.25;1779747;80;20193;-73
2022/07/18 01:41:46;;;;;;;;;;;;;;;10.52;63.55;101534.79;1779511;80;20625;-73
2022/07/18 01:44:13;;;;;;;;;;;;;;;10.53;63.50;101536.50;1779575;80;21024;-73
2022/07/18 01:46:39;;;;;;;;;;;;;;;10.55;63.47;101534.73;1779404;80;20166;-73
2022/07/18 01:49:06;;;;;;;;;;;;;;;10.55;63.27;101532.97;1762136;79;20177;-73
2022/07/18 01:51:33;;;;;;;;;;;;;;;10.55;63.40;101536.89;1775601;80;20167;-73
2022/07/18 01:54:01;;;;;;;;;;;;;;;10.59;63.68;101541.66;1779619;79;20499;-73
2022/07/18 01:56:28;;;;;;;;;;;;;;;10.63;63.75;101540.69;1779410;80;21188;-73
2022/07/18 01:58:56;;;;;;;;;;;;;;;10.67;63.79;101537.14;1767117;80;20188;-73
2022/07/18 02:01:23;;;;;;;;;;;;;;;10.67;63.65;101543.69;1741677;79;20151;-73
2022/07/18 02:03:50;;;;;;;;;;;;;;;10.64;63.85;101541.09;1779569;80;20189;-73
2022/07/18 02:06:16;;;;;;;;;;;;;;;10.68;64.06;101541.47;1779539;80;20480;-72
2022/07/18 02:08:43;;;;;;;;;;;;;;;10.73;64.11;101537.02;1779541;80;21192;-73
2022/07/18 02:11:09;;;;;;;;;;;;;;;10.77;63.99;101536.04;1779754;80;20190;-73
2022/07/18 02:13:36;;;;;;;;;;;;;;;10.77;63.75;101529.48;1779651;80;20442;-73
2022/07/18 02:16:03;;;;;;;;;;;;;;;10.76;63.83;101530.39;1779892;80;20174;-72
2022/07/18 02:18:32;;;;;;;;;;;;;;;10.76;63.85;101531.70;1777257;80;20596;-72
2022/07/18 02:21:02;;;;;;;;;;;;;;;10.74;63.94;101534.80;1754454;80;21031;-73
2022/07/18 02:23:29;;;;;;;;;;;;;;;10.71;63.85;101534.41;1759097;80;20489;-73
2022/07/18 02:25:55;;;;;;;;;;;;;;;10.69;64.04;101540.56;1779018;80;20159;-72
2022/07/18 02:28:22;;;;;;;;;;;;;;;10.68;64.24;101544.95;1779690;80;20475;-72
2022/07/18 02:30:49;;;;;;;;;;;;;;;10.69;64.23;101538.80;1774232;80;20489;-73
2022/07/18 02:33:16;;;;;;;;;;;;;;;10.72;64.47;101533.95;1764007;80;21965;-73
2022/07/18 02:35:43;;;;;;;;;;;;;;;10.73;64.44;101534.84;1779848;80;20190;-72
2022/07/18 02:38:10;;;;;;;;;;;;;;;10.73;64.66;101538.77;1779583;80;20199;-73
2022/07/18 02:40:36;;;;;;;;;;;;;;;10.73;65.08;101530.45;1779824;80;20206;-73
2022/07/18 02:43:04;;;;;;;;;;;;;;;10.79;65.20;101528.16;1779698;78;21201;-73
2022/07/18 02:45:30;;;;;;;;;;;;;;;10.82;64.94;101535.96;1779549;80;21096;-73
2022/07/18 02:47:57;;;;;;;;;;;;;;;10.85;64.98;101531.96;1769866;80;20159;-73
2022/07/18 02:50:24;;;;;;;;;;;;;;;10.90;65.05;101527.49;1760697;80;20201;-73
2022/07/18 02:52:51;;;;;;;;;;;;;;;10.94;64.98;101528.69;1779991;80;20177;-73
2022/07/18 02:55:17;;;;;;;;;;;;;;;10.99;64.89;101532.54;1779641;80;20504;-73
2022/07/18 02:57:44;;;;;;;;;;;;;;;11.03;64.78;101528.97;1779620;80;21180;-73
2022/07/18 03:00:14;;;;;;;;;;;;;;;11.06;64.78;101529.36;1779623;79;20196;-73
2022/07/18 03:02:41;;;;;;;;;;;;;;;11.11;64.83;101531.41;1779510;80;20197;-72
2022/07/18 03:05:08;;;;;;;;;;;;;;;11.14;64.86;101536.17;1770233;79;20207;-73
2022/07/18 03:07:35;;;;;;;;;;;;;;;11.13;64.67;101534.42;1767824;79;20494;-73
2022/07/18 03:10:03;;;;;;;;;;;;;;;11.11;64.53;101537.97;1779865;80;21132;-72
2022/07/18 03:12:30;;;;;;;;;;;;;;;11.12;64.47;101538.41;1779557;80;20364;-73
2022/07/18 03:14:57;;;;;;;;;;;;;;;11.10;64.54;101537.56;1750717;80;20398;-73
2022/07/18 03:17:24;;;;;;;;;;;;;;;11.08;64.45;101538.89;1779587;80;20170;-73
2022/07/18 03:19:50;;;;;;;;;;;;;;;11.07;64.62;101539.80;1779931;80;20512;-73
2022/07/18 03:22:17;;;;;;;;;;;;;;;11.09;64.63;101538.48;1774353;80;21932;-73
2022/07/18 03:24:44;;;;;;;;;;;;;;;11.07;64.70;101537.18;1763924;80;20081;-73
2022/07/18 03:27:10;;;;;;;;;;;;;;;11.12;64.52;101537.95;1750519;80;20186;-73
2022/07/18 03:29:37;;;;;;;;;;;;;;;11.17;64.50;101541.80;1779871;80;20418;-73
2022/07/18 03:32:04;;;;;;;;;;;;;;;11.23;64.47;101536.41;1779656;80;20526;-73
2022/07/18 03:34:31;;;;;;;;;;;;;;;11.28;64.32;101542.86;1779930;80;21145;-73
2022/07/18 03:36:57;;;;;;;;;;;;;;;11.31;64.49;101539.74;1779535;80;20205;-73
2022/07/18 03:39:24;;;;;;;;;;;;;;;11.38;64.46;101541.77;1778628;79;20498;-72
2022/07/18 03:41:52;;;;;;;;;;;;;;;11.42;64.14;101540.82;1779714;80;20162;-72
2022/07/18 03:44:18;;;;;;;;;;;;;;;11.43;64.12;101543.84;1779797;79;20469;-72
2022/07/18 03:46:45;;;;;;;;;;;;;;;11.48;64.30;101539.81;1767619;79;21265;-72
2022/07/18 03:49:12;;;;;;;;;;;;;;;11.52;64.50;101541.45;1784775;79;20420;-72
2022/07/18 03:51:38;;;;;;;;;;;;;;;11.55;64.46;101537.45;1785142;80;20201;-73
2022/07/18 03:54:05;;;;;;;;;;;;;;;11.53;64.49;101535.33;1784830;80;20161;-72
2022/07/18 03:56:32;;;;;;;;;;;;;;;11.56;64.60;101536.56;1763342;79;20526;-72
2022/07/18 03:58:59;;;;;;;;;;;;;;;11.59;64.82;101536.04;1784802;80;21156;-73
2022/07/18 04:01:25;;;;;;;;;;;;;;;11.64;64.83;101533.32;1784939;79;20085;-73
2022/07/18 04:03:52;;;;;;;;;;;;;;;11.68;64.77;101535.41;1784738;79;20193;-72
2022/07/18 04:06:19;;;;;;;;;;;;;;;11.73;64.89;101537.48;1781290;79;20165;-73
2022/07/18 04:08:45;;;;;;;;;;;;;;;11.75;64.82;101541.80;1759659;79;20559;-73
2022/07/18 04:11:12;;;;;;;;;;;;;;;11.78;64.83;101539.56;1785128;79;21136;-73
2022/07/18 04:13:39;;;;;;;;;;;;;;;11.80;64.78;101542.98;1784800;79;20197;-72
2022/07/18 04:16:06;;;;;;;;;;;;;;;11.79;64.73;101538.19;1784851;79;20150;-72
2022/07/18 04:18:32;;;;;;;;;;;;;;;11.77;64.66;101539.13;1762520;80;20483;-71
2022/07/18 04:20:59;;;;;;;;;;;;;;;11.71;64.66;101535.34;1782295;80;21146;-71
2022/07/18 04:23:27;;;;;;;;;;;;;;;11.73;64.91;101539.66;1765686;80;21172;-72
2022/07/18 04:25:53;;;;;;;;;;;;;;;11.78;65.06;101535.63;1766589;79;20197;-72
2022/07/18 04:28:20;;;;;;;;;;;;;;;11.84;65.24;101537.64;1781920;79;20193;-72
2022/07/18 04:30:47;;;;;;;;;;;;;;;11.91;65.12;101534.43;1755988;80;20428;-72
2022/07/18 04:33:15;;;;;;;;;;;;;;;11.94;65.05;101536.13;1767185;80;20614;-72
2022/07/18 04:35:42;;;;;;;;;;;;;;;11.98;65.03;101534.70;1757693;79;22015;-71
2022/07/18 04:38:10;;;;;;;;;;;;;;;12.02;65.10;101535.03;1751033;80;20195;-70
2022/07/18 04:40:37;;;;;;;;;;;;;;;12.04;64.76;101532.37;1754434;79;20207;-71
2022/07/18 04:43:04;;;;;;;;;;;;;;;12.08;64.98;101534.01;1754703;80;20422;-71
2022/07/18 04:45:30;;;;;;;;;;;;;;;12.13;64.98;101533.45;1757485;80;20597;-72
2022/07/18 04:47:57;;;;;;;;;;;;;;;12.18;65.08;101531.57;1746616;80;21220;-73
2022/07/18 04:50:24;;;;;;;;;;;;;;;12.27;65.09;101528.70;1775904;79;20236;-72
2022/07/18 04:52:51;;;;;;;;;;;;;;;12.35;64.83;101535.53;1771116;80;20175;-72
2022/07/18 04:55:21;;;;;;;;;;;;;;;12.38;64.89;101534.98;1762341;80;20222;-72
2022/07/18 04:57:48;;;;;;;;;;;;;;;12.46;64.82;101538.28;1752272;80;20566;-75
2022/07/18 05:00:17;;;;;;;;;;;;;;;12.55;64.83;101540.25;1746452;80;21076;-72
2022/07/18 05:02:45;;;;;;;;;;;;;;;12.61;64.87;101537.45;1763827;79;21064;-71
2022/07/18 05:05:13;;;;;;;;;;;;;;;12.71;65.01;101534.98;1755472;79;20204;-73
2022/07/18 05:07:41;;;;;;;;;;;;;;;12.83;64.99;101534.66;1768450;79;20324;-72
2022/07/18 05:10:09;;;;;;;;;;;;;;;12.92;65.04;101532.22;1754501;80;20520;-72
2022/07/18 05:12:39;;;;;;;;;;;;;;;13.03;64.70;101534.55;1756473;80;21212;-72
2022/07/18 05:15:10;;;;;;;;;;;;;;;13.10;64.65;101526.86;1752477;79;20205;-75
2022/07/18 05:17:37;;;;;;;;;;;;;;;13.21;64.75;101530.03;1773873;79;20141;-72
2022/07/18 05:20:07;;;;;;;;;;;;;;;13.31;64.72;101526.25;1768883;79;20319;-72
2022/07/18 05:22:34;;;;;;;;;;;;;;;13.46;64.81;101525.37;1747930;79;20510;-77
2022/07/18 05:25:02;;;;;;;;;;;;;;;13.59;64.67;101522.77;1764982;80;21175;-75
2022/07/18 05:27:28;;;;;;;;;;;;;;;13.73;64.80;101525.81;1772609;80;20846;-72
2022/07/18 05:29:55;;;;;;;;;;;;;;;13.89;65.01;101524.02;1776724;80;20225;-72
2022/07/18 05:32:22;;;;;;;;;;;;;;;14.04;65.05;101522.17;1776580;80;20200;-72
2022/07/18 05:34:48;;;;;;;;;;;;;;;14.19;65.03;101526.05;1755889;80;20548;-73
2022/07/18 05:37:15;;;;;;;;;;;;;;;14.31;64.75;101526.97;1757358;80;21212;-74
2022/07/18 05:39:42;;;;;;;;;;;;;;;14.43;64.49;101530.48;1763838;80;20213;-73
2022/07/18 05:42:08;;;;;;;;;;;;;;;14.54;64.26;101524.86;1762298;80;20229;-73
2022/07/18 05:44:35;;;;;;;;;;;;;;;14.67;63.98;101523.98;1764246;80;20209;-72
2022/07/18 05:47:02;;;;;;;;;;;;;;;14.80;63.82;101525.70;1759671;80;20546;-72
2022/07/18 05:49:29;;;;;;;;;;;;;;;14.90;63.54;101525.30;1750425;80;21879;-72
2022/07/18 05:51:55;;;;;;;;;;;;;;;15.00;63.36;101527.63;1746364;80;20504;-73
2022/07/18 05:54:24;;;;;;;;;;;;;;;15.11;62.67;101524.97;1764350;79;20218;-73
2022/07/18 05:56:51;;;;;;;;;;;;;;;15.28;62.61;101523.47;1753526;79;20187;-72
2022/07/18 05:59:21;;;;;;;;;;;;;;;15.42;61.74;101522.93;1759308;79;20196;-75
2022/07/18 06:01:47;;;;;;;;;;;;;;;15.56;61.42;101516.63;1754869;79;21200;-76
2022/07/18 06:04:14;;;;;;;;;;;;;;;15.70;60.23;101518.28;1766538;79;20223;-75
2022/07/18 06:06:41;;;;;;;;;;;;;;;15.87;60.08;101517.59;1746021;80;20203;-74
2022/07/18 06:09:12;;;;;;;;;;;;;;;16.05;59.38;101525.23;1763267;79;20160;-73
2022/07/18 06:11:36;;;;;;;;;;;;;;;16.22;59.08;101517.44;1750768;79;20502;-73
2022/07/18 06:14:03;;;;;;;;;;;;;;;16.39;58.60;101523.80;1765806;79;21154;-73
2022/07/18 06:16:30;;;;;;;;;;;;;;;16.56;57.89;101523.05;1753237;80;20265;-74
2022/07/18 06:18:58;;;;;;;;;;;;;;;16.77;57.04;101517.31;1755851;80;20180;-73
2022/07/18 06:21:24;;;;;;;;;;;;;;;16.92;56.62;101513.95;1754863;80;20187;-73
2022/07/18 06:23:51;;;;;;;;;;;;;;;17.10;56.35;101515.77;1771113;80;20543;-74
2022/07/18 06:26:18;;;;;;;;;;;;;;;17.28;55.76;101519.32;1776905;80;21143;-73
2022/07/18 06:28:44;;;;;;;;;;;;;;;17.46;55.31;101511.42;1777169;80;20524;-77
2022/07/18 06:31:11;;;;;;;;;;;;;;;17.59;54.43;101508.10;1776797;80;20192;-82
2022/07/18 06:33:40;;;;;;;;;;;;;;;17.74;54.12;101516.27;1777088;79;20170;-77
2022/07/18 06:36:06;;;;;;;;;;;;;;;17.89;53.41;101516.84;1776959;80;20760;-74
2022/07/18 06:38:33;;;;;;;;;;;;;;;18.02;52.71;101511.33;1777147;80;21178;-75
2022/07/18 06:41:00;;;;;;;;;;;;;;;18.14;52.31;101509.84;1776750;79;20313;-80
2022/07/18 06:43:26;;;;;;;;;;;;;;;18.28;51.96;101519.74;1776726;80;20442;-74
2022/07/18 06:45:53;;;;;;;;;;;;;;;18.42;51.00;101513.24;1776889;79;20150;-75
2022/07/18 06:48:20;;;;;;;;;;;;;;;18.56;51.24;101507.21;1777238;80;20783;-80
2022/07/18 06:50:47;;;;;;;;;;;;;;;18.69;50.42;101496.33;1776811;80;21163;-75
2022/07/18 06:53:13;;;;;;;;;;;;;;;18.83;49.94;101497.42;1771215;80;20180;-75
2022/07/18 06:55:40;;;;;;;;;;;;;;;18.94;49.39;101495.04;1776666;80;20637;-83
2022/07/18 06:58:07;;;;;;;;;;;;;;;19.03;49.23;101491.87;1776724;80;20205;-74
2022/07/18 07:00:33;;;;;;;;;;;;;;;19.13;48.68;101494.89;1776873;79;20866;-73
2022/07/18 07:03:00;;;;;;;;;;;;;;;19.22;48.68;101483.73;1777046;80;21815;-74
2022/07/18 07:05:26;;;;;;;;;;;;;;;19.32;48.50;101488.93;1776556;80;20189;-74
2022/07/18 07:07:53;;;;;;;;;;;;;;;19.45;48.62;101483.75;1776899;79;20201;-74
2022/07/18 07:10:20;;;;;;;;;;;;;;;19.58;48.29;101483.92;1776615;79;20189;-73
2022/07/18 07:12:49;;;;;;;;;;;;;;;19.67;48.03;101482.08;1777015;80;20408;-74
2022/07/18 07:15:18;;;;;;;;;;;;;;;19.74;47.83;101490.11;1771761;80;21921;-74
2022/07/18 07:17:45;;;;;;;;;;;;;;;19.82;47.82;101487.86;1755908;80;20181;-73
2022/07/18 07:20:12;;;;;;;;;;;;;;;19.93;47.59;101485.05;1776803;80;20216;-77
2022/07/18 07:22:54;;;;;;;;;;;;;;;20.04;47.55;101485.27;1770870;80;20150;-76
2022/07/18 07:25:23;;;;;;;;;;;;;;;20.14;47.02;101478.42;1771089;80;20485;-78
2022/07/18 07:27:49;;;;;;;;;;;;;;;20.24;46.93;101473.41;1776955;80;21532;-77
2022/07/18 07:30:16;;;;;;;;;;;;;;;20.29;46.80;101481.98;1769266;79;20161;-79
2022/07/18 07:32:44;;;;;;;;;;;;;;;20.33;46.50;101479.98;1776705;79;20194;-77
2022/07/18 07:35:13;;;;;;;;;;;;;;;20.40;46.45;101478.19;1746206;80;20195;-77
2022/07/18 07:37:41;;;;;;;;;;;;;;;20.45;46.41;101481.88;1758197;80;20475;-77
2022/07/18 07:40:09;;;;;;;;;;;;;;;20.51;46.26;101476.20;1747598;80;21042;-77
2022/07/18 07:42:36;;;;;;;;;;;;;;;20.57;46.16;101475.00;1760251;80;20176;-77
2022/07/18 07:45:03;;;;;;;;;;;;;;;20.64;45.88;101476.31;1750305;80;20204;-81
2022/07/18 07:47:29;;;;;;;;;;;;;;;20.69;45.71;101471.56;1754333;80;20203;-76
2022/07/18 07:49:57;;;;;;;;;;;;;;;20.72;45.79;101468.22;1767506;80;20370;-78
2022/07/18 07:52:24;;;;;;;;;;;;;;;20.78;45.78;101468.31;1746501;80;21104;-78
2022/07/18 07:54:51;;;;;;;;;;;;;;;20.94;45.82;101472.20;1747809;80;20219;-76
2022/07/18 07:57:18;;;;;;;;;;;;;;;21.03;45.31;101477.42;1762098;80;20224;-77
2022/07/18 07:59:45;;;;;;;;;;;;;;;21.09;44.98;101479.23;1755715;80;20632;-77
2022/07/18 08:02:13;;;;;;;;;;;;;;;21.13;44.54;101478.06;1765004;80;20453;-76
2022/07/18 08:04:39;;;;;;;;;;;;;;;21.14;44.60;101474.92;1755017;80;21164;-76
2022/07/18 08:07:06;;;;;;;;;;;;;;;21.16;44.45;101469.87;1746422;80;20200;-78
2022/07/18 08:09:33;;;;;;;;;;;;;;;21.30;44.89;101470.79;1746302;80;20264;-76
2022/07/18 08:12:00;;;;;;;;;;;;;;;21.49;44.51;101471.81;1749319;80;20261;-77
2022/07/18 08:14:26;;;;;;;;;;;;;;;21.64;44.49;101472.11;1761039;80;20547;-77
2022/07/18 08:16:53;;;;;;;;;;;;;;;21.78;43.98;101465.86;1773879;80;21198;-75
2022/07/18 08:19:20;;;;;;;;;;;;;;;21.85;43.58;101467.16;1779643;80;20201;-76
2022/07/18 08:21:46;;;;;;;;;;;;;;;21.94;43.49;101457.67;1779249;80;20189;-76
2022/07/18 08:24:13;;;;;;;;;;;;;;;22.05;43.82;101461.80;1757968;80;20126;-75
2022/07/18 08:26:40;;;;;;;;;;;;;;;22.14;43.03;101461.64;1779436;80;20562;-76
2022/07/18 08:29:07;;;;;;;;;;;;;;;22.14;42.66;101458.52;1779617;79;21198;-76
2022/07/18 08:31:34;;;;;;;;;;;;;;;22.15;42.26;101455.36;1779311;80;20461;-76
2022/07/18 08:34:01;;;;;;;;;;;;;;;22.14;42.06;101458.97;1774924;79;20245;-76
2022/07/18 08:36:28;;;;;;;;;;;;;;;22.13;41.96;101448.78;1779444;80;20779;-76
2022/07/18 08:38:54;;;;;;;;;;;;;;;22.17;42.17;101450.75;1779670;79;21494;-76
2022/07/18 08:41:23;;;;;;;;;;;;;;;22.31;42.21;101448.48;1779379;80;21108;-75
2022/07/18 08:43:51;;;;;;;;;;;;;;;22.41;41.93;101444.22;1779640;80;20201;-76
2022/07/18 08:46:21;;;;;;;;;;;;;;;22.51;41.67;101450.63;1779252;79;20166;-76
2022/07/18 08:48:49;;;;;;;;;;;;;;;22.58;41.38;101447.03;1779579;80;20458;-76
2022/07/18 08:51:16;;;;;;;;;;;;;;;22.62;41.00;101449.88;1750206;80;20670;-76
2022/07/18 08:53:43;;;;;;;;;;;;;;;22.68;41.10;101450.28;1779587;80;21078;-76
2022/07/18 08:56:10;;;;;;;;;;;;;;;22.75;41.12;101449.34;1779367;80;20181;-76
2022/07/18 08:58:36;;;;;;;;;;;;;;;22.92;40.94;101448.16;1779294;80;20174;-76
2022/07/18 09:01:03;;;;;;;;;;;;;;;23.01;40.87;101445.33;1779388;80;20151;-76
2022/07/18 09:03:31;;;;;;;;;;;;;;;23.08;40.77;101443.41;1779255;80;20591;-76
2022/07/18 09:06:12;;;;;;;;;;;;;;;23.19;40.42;101445.30;1779380;80;21104;-76
2022/07/18 09:08:59;;;;;;;;;;;;;;;23.27;40.38;101444.73;1759726;80;20166;-76
2022/07/18 09:11:26;;;;;;;;;;;;;;;23.37;40.08;101449.78;1779380;80;20197;-76
2022/07/18 09:13:53;;;;;;;;;;;;;;;23.43;39.85;101447.14;1779762;80;20177;-76
2022/07/18 09:16:20;;;;;;;;;;;;;;;23.46;39.44;101441.06;1779323;80;20437;-76
2022/07/18 09:18:48;;;;;;;;;;;;;;;23.51;39.43;101442.91;1768728;80;21565;-76
2022/07/18 09:21:18;;;;;;;;;;;;;;;23.60;39.54;101437.34;1779570;80;20394;-76
2022/07/18 09:23:49;;;;;;;;;;;;;;;23.64;39.11;101443.31;1756036;79;20200;-76
2022/07/18 09:26:38;;;;;;;;;;;;;;;23.67;39.44;101439.94;1761423;80;20475;-76
2022/07/18 09:29:04;;;;;;;;;;;;;;;23.77;39.09;101440.96;1779959;80;20571;-76
2022/07/18 09:31:31;;;;;;;;;;;;;;;23.94;39.47;101435.65;1779593;80;21918;-76
2022/07/18 09:34:00;;;;;;;;;;;;;;;24.17;39.23;101443.27;1779746;80;20146;-76
2022/07/18 09:36:28;;;;;;;;;;;;;;;24.25;38.54;101434.63;1779560;80;20173;-76
2022/07/18 09:38:55;;;;;;;;;;;;;;;24.32;38.36;101442.53;1779837;80;20127;-76
2022/07/18 09:41:26;;;;;;;;;;;;;;;24.38;38.11;101432.67;1779758;80;20656;-76
2022/07/18 09:43:52;;;;;;;;;;;;;;;24.43;37.96;101434.53;1779744;79;21155;-76
2022/07/18 09:46:19;;;;;;;;;;;;;;;24.52;38.01;101428.92;1768799;79;20148;-76
2022/07/18 09:48:46;;;;;;;;;;;;;;;24.67;38.13;101430.39;1761795;80;20178;-76
2022/07/18 09:51:13;;;;;;;;;;;;;;;24.84;37.94;101427.69;1779635;80;20242;-76
2022/07/18 09:53:42;;;;;;;;;;;;;;;24.96;37.64;101427.17;1779909;80;20464;-76
2022/07/18 09:56:11;;;;;;;;;;;;;;;25.01;37.40;101420.95;1776409;80;21120;-76
2022/07/18 09:58:40;;;;;;;;;;;;;;;25.13;37.18;101417.73;1762006;80;20139;-76
2022/07/18 10:01:09;;;;;;;;;;;;;;;25.26;37.06;101426.52;1779613;80;20205;-76
2022/07/18 10:03:39;;;;;;;;;;;;;;;25.35;36.91;101420.88;1779770;80;20421;-76
2022/07/18 10:06:06;;;;;;;;;;;;;;;25.43;36.77;101417.06;1779753;80;20527;-76
2022/07/18 10:08:33;;;;;;;;;;;;;;;25.57;36.92;101422.11;1758505;80;21160;-76
2022/07/18 10:11:02;;;;;;;;;;;;;;;25.65;36.53;101426.00;1753749;80;20390;-76
2022/07/18 10:13:29;;;;;;;;;;;;;;;25.72;36.38;101417.80;1777288;80;20510;-77
2022/07/18 10:15:56;;;;;;;;;;;;;;;25.69;36.03;101420.72;1779558;80;20190;-76
2022/07/18 10:18:25;;;;;;;;;;;;;;;25.72;35.92;101425.85;1779804;80;20549;-76
2022/07/18 10:21:12;;;;;;;;;;;;;;;25.80;35.66;101411.25;1779558;80;21729;-76
2022/07/18 10:23:45;;;;;;;;;;;;;;;25.94;35.58;101410.09;1757878;79;20144;-76
2022/07/18 10:26:17;;;;;;;;;;;;;;;26.11;35.34;101410.02;1767760;79;20145;-76
2022/07/18 10:28:59;;;;;;;;;;;;;;;26.26;35.45;101402.78;1742292;80;20135;-76
2022/07/18 10:31:30;;;;;;;;;;;;;;;26.56;35.39;101409.17;1779610;80;20567;-76
2022/07/18 10:34:11;;;;;;;;;;;;;;;26.95;35.27;101407.08;1779713;80;21065;-77
2022/07/18 10:36:41;;;;;;;;;;;;;;;27.25;34.96;101407.01;1779412;80;20193;-76
2022/07/18 10:39:23;;;;;;;;;;;;;;;27.54;34.36;101406.98;1779431;80;20827;-77
2022/07/18 10:41:57;;;;;;;;;;;;;;;27.80;34.27;101401.06;1779486;80;20181;-77
2022/07/18 10:44:30;;;;;;;;;;;;;;;28.19;33.97;101401.80;1779417;80;20463;-77
2022/07/18 10:47:09;;;;;;;;;;;;;;;28.53;33.74;101395.02;1779515;80;21310;-77
2022/07/18 10:49:52;;;;;;;;;;;;;;;28.83;33.35;101393.34;1779605;80;20173;-76
2022/07/18 10:52:39;;;;;;;;;;;;;;;29.13;33.01;101388.12;1779441;80;20197;-77
2022/07/18 10:55:11;;;;;;;;;;;;;;;29.42;32.70;101387.53;1759386;79;20672;-77
2022/07/18 10:57:43;;;;;;;;;;;;;;;29.73;32.77;101379.34;1750422;79;20489;-77
2022/07/18 11:00:28;;;;;;;;;;;;;;;30.04;32.64;101376.16;1777727;80;21193;-77
2022/07/18 11:03:04;;;;;;;;;;;;;;;30.37;32.35;101373.14;1767834;80;20173;-77
2022/07/18 11:05:34;;;;;;;;;;;;;;;30.58;31.57;101365.13;1765528;80;20203;-77
2022/07/18 11:08:05;;;;;;;;;;;;;;;30.70;31.25;101362.95;1773282;80;20146;-77
2022/07/18 11:10:49;;;;;;;;;;;;;;;30.83;31.01;101362.00;1779718;80;21257;-77
2022/07/18 11:13:37;;;;;;;;;;;;;;;31.02;30.86;101365.76;1779467;80;21112;-77
2022/07/18 11:16:10;;;;;;;;;;;;;;;31.23;30.58;101361.19;1779576;79;20145;-77
2022/07/18 11:18:43;;;;;;;;;;;;;;;31.37;30.21;101362.41;1779483;80;20190;-77
2022/07/18 11:21:21;;;;;;;;;;;;;;;31.41;29.80;101362.94;1779709;80;20462;-78
2022/07/18 11:23:49;;;;;;;;;;;;;;;31.46;29.70;101359.21;1757745;80;20485;-79
2022/07/18 11:26:22;;;;;;;;;;;;;;;31.53;29.53;101354.27;1779663;80;21167;-77
2022/07/18 11:28:50;;;;;;;;;;;;;;;31.61;29.66;101346.64;1779439;80;20194;-83
2022/07/18 11:31:17;;;;;;;;;;;;;;;31.64;29.20;101350.88;1779125;79;20201;-76
2022/07/18 11:33:48;;;;;;;;;;;;;;;31.49;28.72;101349.39;1779465;80;20135;-77
2022/07/18 11:36:19;;;;;;;;;;;;;;;31.53;28.92;101352.08;1751457;80;20560;-77
2022/07/18 11:38:51;;;;;;;;;;;;;;;31.60;28.41;101346.32;1758465;80;21105;-80
2022/07/18 11:41:19;;;;;;;;;;;;;;;31.62;28.52;101342.94;1775547;79;20190;-75
2022/07/18 11:43:47;;;;;;;;;;;;;;;31.77;28.49;101341.20;1775614;80;20209;-80
2022/07/18 11:46:15;;;;;;;;;;;;;;;31.95;28.51;101345.58;1774413;80;20220;-75
2022/07/18 11:48:44;;;;;;;;;;;;;;;32.10;28.12;101330.29;1776764;80;21378;-75
2022/07/18 11:51:12;;;;;;;;;;;;;;;32.15;27.68;101325.19;1776887;80;21028;-74
2022/07/18 11:53:47;;;;;;;;;;;;;;;32.08;27.75;101320.12;1776851;80;20381;-74
2022/07/18 11:56:14;;;;;;;;;;;;;;;32.12;28.02;101321.48;1776825;80;20717;-75
2022/07/18 11:58:42;;;;;;;;;;;;;;;32.15;27.84;101316.21;1776815;79;20162;-74
2022/07/18 12:01:08;;;;;;;;;;;;;;;32.20;28.01;101313.30;1777335;80;20965;-75
2022/07/18 12:03:37;;;;;;;;;;;;;;;32.20;27.60;101311.08;1776471;80;21120;-74
2022/07/18 12:06:12;;;;;;;;;;;;;;;32.22;27.64;101308.52;1776645;80;20159;-75
2022/07/18 12:08:41;;;;;;;;;;;;;;;32.20;27.41;101308.36;1776515;80;20225;-82
2022/07/18 12:11:21;;;;;;;;;;;;;;;32.13;27.32;101306.88;1776778;80;20211;-74
2022/07/18 12:13:57;;;;;;;;;;;;;;;32.16;27.40;101302.97;1770990;80;20883;-75
2022/07/18 12:16:30;;;;;;;;;;;;;;;32.22;27.55;101307.17;1776807;80;22058;-75
2022/07/18 12:19:07;;;;;;;;;;;;;;;32.39;27.38;101301.14;1776998;79;20189;-76
2022/07/18 12:21:53;;;;;;;;;;;;;;;32.51;27.26;101305.71;1776517;79;20441;-75
2022/07/18 12:24:26;;;;;;;;;;;;;;;32.59;27.10;101299.36;1755671;80;20418;-78
2022/07/18 12:27:18;;;;;;;;;;;;;;;32.68;26.74;101296.95;1766343;80;20639;-79
2022/07/18 12:30:06;;;;;;;;;;;;;;;32.82;26.31;101296.68;1767096;80;21124;-75
2022/07/18 12:32:54;;;;;;;;;;;;;;;32.90;26.63;101300.69;1776777;80;20210;-79
2022/07/18 12:35:31;;;;;;;;;;;;;;;33.09;26.63;101293.92;1777149;80;20190;-75
2022/07/18 12:38:00;;;;;;;;;;;;;;;33.06;26.07;101296.52;1776814;80;20435;-77
2022/07/18 12:40:44;;;;;;;;;;;;;;;33.04;26.19;101291.78;1777101;80;20623;-77
2022/07/18 12:43:14;;;;;;;;;;;;;;;33.12;26.19;101293.59;1776695;80;21184;-77
2022/07/18 12:45:41;;;;;;;;;;;;;;;33.08;25.85;101290.37;1777662;79;20201;-77